sensor_id;sensor_type;location;lat;lon;timestamp;temperature;humidity
11836;DHT22;5977;51.972;7.640;2022-07-22T00:01:28;21.60;99.90
11836;DHT22;5977;51.972;7.640;2022-07-22T00:03:57;21.50;99.90
11836;DHT22;5977;51.972;7.640;2022-07-22T00:06:25;21.50;99.90
11836;DHT22;5977;51.972;7.640;2022-07-22T00:08:55;21.50;99.90
11836;DHT22;5977;51.972;7.640;2022-07-22T00:11:23;21.50;99.90
11836;DHT22;5977;51.972;7.640;2022-07-22T00:13:51;21.70;99.90
11836;DHT22;5977;51.972;7.640;2022-07-22T00:16:19;21.60;99.90
11836;DHT22;5977;51.972;7.640;2022-07-22T00:18:47;21.40;99.90
11836;DHT22;5977;51.972;7.640;2022-07-22T00:21:15;21.30;99.90
11836;DHT22;5977;51.972;7.640;2022-07-22T00:23:43;21.30;99.90
11836;DHT22;5977;51.972;7.640;2022-07-22T00:26:12;21.40;99.90
11836;DHT22;5977;51.972;7.640;2022-07-22T00:28:40;21.60;99.90
11836;DHT22;5977;51.972;7.640;2022-07-22T00:31:08;21.50;99.90
11836;DHT22;5977;51.972;7.640;2022-07-22T00:33:36;21.50;99.90
11836;DHT22;5977;51.972;7.640;2022-07-22T00:36:05;21.40;99.90
11836;DHT22;5977;51.972;7.640;2022-07-22T00:38:33;21.30;99.90
11836;DHT22;5977;51.972;7.640;2022-07-22T00:41:01;21.10;99.90
11836;DHT22;5977;51.972;7.640;2022-07-22T00:43:49;21.20;99.90
11836;DHT22;5977;51.972;7.640;2022-07-22T00:46:17;21.10;99.90
11836;DHT22;5977;51.972;7.640;2022-07-22T00:48:45;21.20;99.90
11836;DHT22;5977;51.972;7.640;2022-07-22T00:51:13;21.10;99.90
11836;DHT22;5977;51.972;7.640;2022-07-22T00:53:41;21.20;99.90
11836;DHT22;5977;51.972;7.640;2022-07-22T00:56:10;21.40;99.90
11836;DHT22;5977;51.972;7.640;2022-07-22T00:58:38;21.20;99.90
11836;DHT22;5977;51.972;7.640;2022-07-22T01:01:07;21.20;99.90
11836;DHT22;5977;51.972;7.640;2022-07-22T01:03:36;21.00;99.90
11836;DHT22;5977;51.972;7.640;2022-07-22T01:06:07;21.00;99.90
11836;DHT22;5977;51.972;7.640;2022-07-22T01:08:35;21.10;99.90
11836;DHT22;5977;51.972;7.640;2022-07-22T01:11:07;21.00;99.90
11836;DHT22;5977;51.972;7.640;2022-07-22T01:13:35;21.00;99.90
11836;DHT22;5977;51.972;7.640;2022-07-22T01:16:04;21.10;99.90
11836;DHT22;5977;51.972;7.640;2022-07-22T01:18:33;21.10;99.90
11836;DHT22;5977;51.972;7.640;2022-07-22T01:21:03;21.00;99.90
11836;DHT22;5977;51.972;7.640;2022-07-22T01:23:32;21.10;99.90
11836;DHT22;5977;51.972;7.640;2022-07-22T01:26:01;21.00;99.90
11836;DHT22;5977;51.972;7.640;2022-07-22T01:28:29;20.80;99.90
11836;DHT22;5977;51.972;7.640;2022-07-22T01:30:57;21.00;99.90
11836;DHT22;5977;51.972;7.640;2022-07-22T01:33:25;20.90;99.90
11836;DHT22;5977;51.972;7.640;2022-07-22T01:35:53;20.80;99.90
11836;DHT22;5977;51.972;7.640;2022-07-22T01:38:22;20.90;99.90
11836;DHT22;5977;51.972;7.640;2022-07-22T01:40:50;20.70;99.90
11836;DHT22;5977;51.972;7.640;2022-07-22T01:43:18;20.70;99.90
11836;DHT22;5977;51.972;7.640;2022-07-22T01:45:51;20.50;99.90
11836;DHT22;5977;51.972;7.640;2022-07-22T01:48:21;20.70;99.90
11836;DHT22;5977;51.972;7.640;2022-07-22T01:50:50;20.80;99.90
11836;DHT22;5977;51.972;7.640;2022-07-22T01:53:18;21.00;99.90
11836;DHT22;5977;51.972;7.640;2022-07-22T01:55:48;20.70;99.90
11836;DHT22;5977;51.972;7.640;2022-07-22T01:58:18;20.60;99.90
11836;DHT22;5977;51.972;7.640;2022-07-22T02:00:47;20.60;99.90
11836;DHT22;5977;51.972;7.640;2022-07-22T02:03:15;20.70;99.90
11836;DHT22;5977;51.972;7.640;2022-07-22T02:05:43;20.80;99.90
11836;DHT22;5977;51.972;7.640;2022-07-22T02:08:25;20.80;99.90
11836;DHT22;5977;51.972;7.640;2022-07-22T02:11:12;20.80;99.90
11836;DHT22;5977;51.972;7.640;2022-07-22T02:13:49;20.70;99.90
11836;DHT22;5977;51.972;7.640;2022-07-22T02:16:17;20.80;99.90
11836;DHT22;5977;51.972;7.640;2022-07-22T02:18:48;20.60;99.90
11836;DHT22;5977;51.972;7.640;2022-07-22T02:21:17;20.40;99.90
11836;DHT22;5977;51.972;7.640;2022-07-22T02:23:45;20.40;99.90
11836;DHT22;5977;51.972;7.640;2022-07-22T02:26:14;20.60;99.90
11836;DHT22;5977;51.972;7.640;2022-07-22T02:28:44;20.70;99.90
11836;DHT22;5977;51.972;7.640;2022-07-22T02:31:12;20.70;99.90
11836;DHT22;5977;51.972;7.640;2022-07-22T02:33:40;20.90;99.90
11836;DHT22;5977;51.972;7.640;2022-07-22T02:36:09;20.50;99.90
11836;DHT22;5977;51.972;7.640;2022-07-22T02:38:38;20.60;99.90
11836;DHT22;5977;51.972;7.640;2022-07-22T02:41:06;20.70;99.90
11836;DHT22;5977;51.972;7.640;2022-07-22T02:43:38;20.70;99.90
11836;DHT22;5977;51.972;7.640;2022-07-22T02:46:06;20.70;99.90
11836;DHT22;5977;51.972;7.640;2022-07-22T02:48:34;20.80;99.90
11836;DHT22;5977;51.972;7.640;2022-07-22T02:51:03;20.50;99.90
11836;DHT22;5977;51.972;7.640;2022-07-22T02:53:31;20.50;99.90
11836;DHT22;5977;51.972;7.640;2022-07-22T02:56:00;20.50;99.90
11836;DHT22;5977;51.972;7.640;2022-07-22T02:58:30;20.70;99.90
11836;DHT22;5977;51.972;7.640;2022-07-22T03:00:59;20.70;99.90
11836;DHT22;5977;51.972;7.640;2022-07-22T03:03:29;20.70;99.90
11836;DHT22;5977;51.972;7.640;2022-07-22T03:05:58;20.60;99.90
11836;DHT22;5977;51.972;7.640;2022-07-22T03:08:36;20.60;99.90
11836;DHT22;5977;51.972;7.640;2022-07-22T03:11:04;20.40;99.90
11836;DHT22;5977;51.972;7.640;2022-07-22T03:13:32;20.60;99.90
11836;DHT22;5977;51.972;7.640;2022-07-22T03:16:02;20.40;99.90
11836;DHT22;5977;51.972;7.640;2022-07-22T03:18:30;20.60;99.90
11836;DHT22;5977;51.972;7.640;2022-07-22T03:20:58;20.70;99.90
11836;DHT22;5977;51.972;7.640;2022-07-22T03:23:26;20.30;99.90
11836;DHT22;5977;51.972;7.640;2022-07-22T03:25:56;20.00;99.90
11836;DHT22;5977;51.972;7.640;2022-07-22T03:28:24;20.10;99.90
11836;DHT22;5977;51.972;7.640;2022-07-22T03:30:52;20.20;99.90
11836;DHT22;5977;51.972;7.640;2022-07-22T03:33:21;20.50;99.90
11836;DHT22;5977;51.972;7.640;2022-07-22T03:35:49;20.50;99.90
11836;DHT22;5977;51.972;7.640;2022-07-22T03:38:17;20.70;99.90
11836;DHT22;5977;51.972;7.640;2022-07-22T03:40:46;20.70;99.90
11836;DHT22;5977;51.972;7.640;2022-07-22T03:43:15;20.60;99.90
11836;DHT22;5977;51.972;7.640;2022-07-22T03:45:43;20.50;99.90
11836;DHT22;5977;51.972;7.640;2022-07-22T03:48:11;20.50;99.90
11836;DHT22;5977;51.972;7.640;2022-07-22T03:50:40;20.50;99.90
11836;DHT22;5977;51.972;7.640;2022-07-22T03:53:09;20.60;99.90
11836;DHT22;5977;51.972;7.640;2022-07-22T03:55:39;20.00;99.90
11836;DHT22;5977;51.972;7.640;2022-07-22T03:58:07;20.10;99.90
11836;DHT22;5977;51.972;7.640;2022-07-22T04:00:35;19.90;99.90
11836;DHT22;5977;51.972;7.640;2022-07-22T04:03:05;20.10;99.90
11836;DHT22;5977;51.972;7.640;2022-07-22T04:05:53;20.40;99.90
11836;DHT22;5977;51.972;7.640;2022-07-22T04:08:34;20.20;99.90
11836;DHT22;5977;51.972;7.640;2022-07-22T04:11:02;20.30;99.90
11836;DHT22;5977;51.972;7.640;2022-07-22T04:13:30;20.20;99.90
11836;DHT22;5977;51.972;7.640;2022-07-22T04:15:58;20.10;99.90
11836;DHT22;5977;51.972;7.640;2022-07-22T04:18:29;19.90;99.90
11836;DHT22;5977;51.972;7.640;2022-07-22T04:20:59;19.90;99.90
11836;DHT22;5977;51.972;7.640;2022-07-22T04:23:33;20.40;99.90
11836;DHT22;5977;51.972;7.640;2022-07-22T04:26:15;20.10;99.90
11836;DHT22;5977;51.972;7.640;2022-07-22T04:28:43;20.30;99.90
11836;DHT22;5977;51.972;7.640;2022-07-22T04:31:11;20.10;99.90
11836;DHT22;5977;51.972;7.640;2022-07-22T04:33:41;20.20;99.90
11836;DHT22;5977;51.972;7.640;2022-07-22T04:36:10;20.10;99.90
11836;DHT22;5977;51.972;7.640;2022-07-22T04:38:38;20.40;99.90
11836;DHT22;5977;51.972;7.640;2022-07-22T04:41:08;20.70;99.30
11836;DHT22;5977;51.972;7.640;2022-07-22T04:43:36;20.50;98.70
11836;DHT22;5977;51.972;7.640;2022-07-22T04:46:06;20.20;99.90
11836;DHT22;5977;51.972;7.640;2022-07-22T04:48:38;20.10;99.90
11836;DHT22;5977;51.972;7.640;2022-07-22T04:51:06;19.90;99.90
11836;DHT22;5977;51.972;7.640;2022-07-22T04:53:36;20.10;99.90
11836;DHT22;5977;51.972;7.640;2022-07-22T04:56:15;20.20;99.90
11836;DHT22;5977;51.972;7.640;2022-07-22T04:58:44;20.10;99.90
11836;DHT22;5977;51.972;7.640;2022-07-22T05:01:12;20.00;99.90
11836;DHT22;5977;51.972;7.640;2022-07-22T05:03:42;19.80;99.90
11836;DHT22;5977;51.972;7.640;2022-07-22T05:06:12;19.60;99.90
11836;DHT22;5977;51.972;7.640;2022-07-22T05:08:44;19.90;99.90
11836;DHT22;5977;51.972;7.640;2022-07-22T05:11:12;19.80;99.90
11836;DHT22;5977;51.972;7.640;2022-07-22T05:13:40;19.80;99.90
11836;DHT22;5977;51.972;7.640;2022-07-22T05:16:09;20.30;99.70
11836;DHT22;5977;51.972;7.640;2022-07-22T05:18:38;20.40;99.60
11836;DHT22;5977;51.972;7.640;2022-07-22T05:21:09;20.60;97.20
11836;DHT22;5977;51.972;7.640;2022-07-22T05:23:38;20.40;97.80
11836;DHT22;5977;51.972;7.640;2022-07-22T05:26:07;20.30;99.50
11836;DHT22;5977;51.972;7.640;2022-07-22T05:28:36;21.00;98.80
11836;DHT22;5977;51.972;7.640;2022-07-22T05:31:04;21.30;99.90
11836;DHT22;5977;51.972;7.640;2022-07-22T05:33:33;21.30;99.90
11836;DHT22;5977;51.972;7.640;2022-07-22T05:36:04;21.30;97.90
11836;DHT22;5977;51.972;7.640;2022-07-22T05:38:45;21.00;97.90
11836;DHT22;5977;51.972;7.640;2022-07-22T05:41:14;20.90;97.20
11836;DHT22;5977;51.972;7.640;2022-07-22T05:43:42;20.90;96.60
11836;DHT22;5977;51.972;7.640;2022-07-22T05:46:10;21.00;96.00
11836;DHT22;5977;51.972;7.640;2022-07-22T05:48:38;21.10;95.40
11836;DHT22;5977;51.972;7.640;2022-07-22T05:51:11;21.20;94.20
11836;DHT22;5977;51.972;7.640;2022-07-22T05:53:41;21.20;94.60
11836;DHT22;5977;51.972;7.640;2022-07-22T05:56:09;21.00;94.00
11836;DHT22;5977;51.972;7.640;2022-07-22T05:58:40;21.00;94.80
11836;DHT22;5977;51.972;7.640;2022-07-22T06:01:11;21.00;94.10
11836;DHT22;5977;51.972;7.640;2022-07-22T06:03:39;21.00;94.00
11836;DHT22;5977;51.972;7.640;2022-07-22T06:06:10;21.00;92.80
11836;DHT22;5977;51.972;7.640;2022-07-22T06:08:37;20.90;92.70
11836;DHT22;5977;51.972;7.640;2022-07-22T06:11:06;20.80;91.90
11836;DHT22;5977;51.972;7.640;2022-07-22T06:13:34;20.80;92.40
11836;DHT22;5977;51.972;7.640;2022-07-22T06:16:04;20.80;93.20
11836;DHT22;5977;51.972;7.640;2022-07-22T06:18:33;21.00;92.50
11836;DHT22;5977;51.972;7.640;2022-07-22T06:21:01;20.90;91.80
11836;DHT22;5977;51.972;7.640;2022-07-22T06:23:30;21.00;92.40
11836;DHT22;5977;51.972;7.640;2022-07-22T06:25:58;21.30;91.70
11836;DHT22;5977;51.972;7.640;2022-07-22T06:28:34;21.30;90.20
11836;DHT22;5977;51.972;7.640;2022-07-22T06:31:04;21.50;89.30
11836;DHT22;5977;51.972;7.640;2022-07-22T06:33:32;21.60;89.10
11836;DHT22;5977;51.972;7.640;2022-07-22T06:36:01;21.60;87.80
11836;DHT22;5977;51.972;7.640;2022-07-22T06:38:30;21.40;85.50
11836;DHT22;5977;51.972;7.640;2022-07-22T06:41:25;21.30;86.50
11836;DHT22;5977;51.972;7.640;2022-07-22T06:44:02;21.40;86.70
11836;DHT22;5977;51.972;7.640;2022-07-22T06:46:50;21.10;83.20
11836;DHT22;5977;51.972;7.640;2022-07-22T06:49:20;21.00;84.80
11836;DHT22;5977;51.972;7.640;2022-07-22T06:51:50;21.20;83.90
11836;DHT22;5977;51.972;7.640;2022-07-22T06:54:19;21.40;82.80
11836;DHT22;5977;51.972;7.640;2022-07-22T06:56:48;21.50;81.50
11836;DHT22;5977;51.972;7.640;2022-07-22T06:59:21;21.10;80.40
11836;DHT22;5977;51.972;7.640;2022-07-22T07:01:53;21.00;81.50
11836;DHT22;5977;51.972;7.640;2022-07-22T07:04:22;20.80;82.80
11836;DHT22;5977;51.972;7.640;2022-07-22T07:06:51;20.90;84.00
11836;DHT22;5977;51.972;7.640;2022-07-22T07:09:35;20.90;84.00
11836;DHT22;5977;51.972;7.640;2022-07-22T07:12:14;21.10;83.50
11836;DHT22;5977;51.972;7.640;2022-07-22T07:15:00;21.50;83.50
11836;DHT22;5977;51.972;7.640;2022-07-22T07:17:49;21.50;84.40
11836;DHT22;5977;51.972;7.640;2022-07-22T07:20:18;22.00;85.70
11836;DHT22;5977;51.972;7.640;2022-07-22T07:22:46;22.10;80.70
11836;DHT22;5977;51.972;7.640;2022-07-22T07:25:15;22.40;79.70
11836;DHT22;5977;51.972;7.640;2022-07-22T07:27:50;22.10;79.00
11836;DHT22;5977;51.972;7.640;2022-07-22T07:30:25;21.90;79.30
11836;DHT22;5977;51.972;7.640;2022-07-22T07:32:54;21.60;79.20
11836;DHT22;5977;51.972;7.640;2022-07-22T07:35:23;21.50;81.50
11836;DHT22;5977;51.972;7.640;2022-07-22T07:37:57;21.40;79.40
11836;DHT22;5977;51.972;7.640;2022-07-22T07:40:25;21.50;82.40
11836;DHT22;5977;51.972;7.640;2022-07-22T07:42:53;21.50;81.10
11836;DHT22;5977;51.972;7.640;2022-07-22T07:45:29;21.50;80.20
11836;DHT22;5977;51.972;7.640;2022-07-22T07:47:58;21.20;80.00
11836;DHT22;5977;51.972;7.640;2022-07-22T07:50:27;21.10;80.00
11836;DHT22;5977;51.972;7.640;2022-07-22T07:52:56;21.10;80.20
11836;DHT22;5977;51.972;7.640;2022-07-22T07:55:26;21.20;80.70
11836;DHT22;5977;51.972;7.640;2022-07-22T07:57:54;21.40;80.70
11836;DHT22;5977;51.972;7.640;2022-07-22T08:00:25;21.50;79.90
11836;DHT22;5977;51.972;7.640;2022-07-22T08:02:55;21.20;79.40
11836;DHT22;5977;51.972;7.640;2022-07-22T08:05:29;21.00;81.60
11836;DHT22;5977;51.972;7.640;2022-07-22T08:07:59;21.50;80.70
11836;DHT22;5977;51.972;7.640;2022-07-22T08:10:27;21.70;81.40
11836;DHT22;5977;51.972;7.640;2022-07-22T08:13:33;22.10;79.60
11836;DHT22;5977;51.972;7.640;2022-07-22T08:16:02;21.80;78.60
11836;DHT22;5977;51.972;7.640;2022-07-22T08:18:31;21.70;79.30
11836;DHT22;5977;51.972;7.640;2022-07-22T08:21:01;22.30;78.30
11836;DHT22;5977;51.972;7.640;2022-07-22T08:23:40;22.30;76.70
11836;DHT22;5977;51.972;7.640;2022-07-22T08:26:11;22.50;76.30
11836;DHT22;5977;51.972;7.640;2022-07-22T08:28:39;22.60;73.40
11836;DHT22;5977;51.972;7.640;2022-07-22T08:31:07;22.40;74.90
11836;DHT22;5977;51.972;7.640;2022-07-22T08:33:36;22.40;74.00
11836;DHT22;5977;51.972;7.640;2022-07-22T08:36:06;22.40;73.90
11836;DHT22;5977;51.972;7.640;2022-07-22T08:38:34;22.50;72.90
11836;DHT22;5977;51.972;7.640;2022-07-22T08:41:03;22.50;71.90
11836;DHT22;5977;51.972;7.640;2022-07-22T08:43:36;22.30;72.20
11836;DHT22;5977;51.972;7.640;2022-07-22T08:46:04;21.90;73.50
11836;DHT22;5977;51.972;7.640;2022-07-22T08:48:46;22.30;73.40
11836;DHT22;5977;51.972;7.640;2022-07-22T08:51:44;22.50;73.10
11836;DHT22;5977;51.972;7.640;2022-07-22T08:54:28;22.20;74.10
11836;DHT22;5977;51.972;7.640;2022-07-22T08:56:57;22.10;73.30
11836;DHT22;5977;51.972;7.640;2022-07-22T08:59:26;22.00;76.00
11836;DHT22;5977;51.972;7.640;2022-07-22T09:02:05;22.30;74.00
11836;DHT22;5977;51.972;7.640;2022-07-22T09:04:54;21.60;71.90
11836;DHT22;5977;51.972;7.640;2022-07-22T09:07:28;21.40;75.00
11836;DHT22;5977;51.972;7.640;2022-07-22T09:10:06;21.60;74.50
11836;DHT22;5977;51.972;7.640;2022-07-22T09:13:05;22.00;74.00
11836;DHT22;5977;51.972;7.640;2022-07-22T09:16:05;22.10;72.70
11836;DHT22;5977;51.972;7.640;2022-07-22T09:18:47;21.80;73.30
11836;DHT22;5977;51.972;7.640;2022-07-22T09:21:34;22.00;74.90
11836;DHT22;5977;51.972;7.640;2022-07-22T09:24:31;22.30;73.70
11836;DHT22;5977;51.972;7.640;2022-07-22T09:27:22;22.00;71.80
11836;DHT22;5977;51.972;7.640;2022-07-22T09:30:13;22.50;73.20
11836;DHT22;5977;51.972;7.640;2022-07-22T09:32:50;22.70;72.00
11836;DHT22;5977;51.972;7.640;2022-07-22T09:35:35;22.80;70.60
11836;DHT22;5977;51.972;7.640;2022-07-22T09:38:05;22.70;69.80
11836;DHT22;5977;51.972;7.640;2022-07-22T09:40:37;22.40;70.40
11836;DHT22;5977;51.972;7.640;2022-07-22T09:43:06;22.50;70.30
11836;DHT22;5977;51.972;7.640;2022-07-22T09:45:45;22.70;70.40
11836;DHT22;5977;51.972;7.640;2022-07-22T09:48:16;22.50;69.60
11836;DHT22;5977;51.972;7.640;2022-07-22T09:51:20;22.00;70.50
11836;DHT22;5977;51.972;7.640;2022-07-22T09:54:07;21.60;72.20
11836;DHT22;5977;51.972;7.640;2022-07-22T09:56:38;21.60;71.80
11836;DHT22;5977;51.972;7.640;2022-07-22T09:59:07;21.90;72.80
11836;DHT22;5977;51.972;7.640;2022-07-22T10:01:39;21.80;71.40
11836;DHT22;5977;51.972;7.640;2022-07-22T10:04:07;21.90;71.80
11836;DHT22;5977;51.972;7.640;2022-07-22T10:06:39;22.00;71.70
11836;DHT22;5977;51.972;7.640;2022-07-22T10:09:14;22.20;71.40
11836;DHT22;5977;51.972;7.640;2022-07-22T10:11:44;22.30;71.30
11836;DHT22;5977;51.972;7.640;2022-07-22T10:14:18;22.20;70.60
11836;DHT22;5977;51.972;7.640;2022-07-22T10:16:51;22.20;70.80
11836;DHT22;5977;51.972;7.640;2022-07-22T10:19:20;22.20;70.70
11836;DHT22;5977;51.972;7.640;2022-07-22T10:21:49;22.00;70.90
11836;DHT22;5977;51.972;7.640;2022-07-22T10:24:19;21.90;71.30
11836;DHT22;5977;51.972;7.640;2022-07-22T10:26:56;21.70;71.00
11836;DHT22;5977;51.972;7.640;2022-07-22T10:29:26;21.70;71.20
11836;DHT22;5977;51.972;7.640;2022-07-22T10:32:23;22.00;71.70
11836;DHT22;5977;51.972;7.640;2022-07-22T10:35:23;22.20;71.40
11836;DHT22;5977;51.972;7.640;2022-07-22T10:37:58;22.40;70.10
11836;DHT22;5977;51.972;7.640;2022-07-22T10:40:28;22.50;68.90
11836;DHT22;5977;51.972;7.640;2022-07-22T10:43:04;22.40;68.70
11836;DHT22;5977;51.972;7.640;2022-07-22T10:45:35;22.30;68.80
11836;DHT22;5977;51.972;7.640;2022-07-22T10:48:04;22.40;68.80
11836;DHT22;5977;51.972;7.640;2022-07-22T10:51:04;22.30;68.80
11836;DHT22;5977;51.972;7.640;2022-07-22T10:53:43;22.30;69.80
11836;DHT22;5977;51.972;7.640;2022-07-22T10:56:17;22.50;70.60
11836;DHT22;5977;51.972;7.640;2022-07-22T10:58:52;22.50;71.60
11836;DHT22;5977;51.972;7.640;2022-07-22T11:01:23;22.60;71.10
11836;DHT22;5977;51.972;7.640;2022-07-22T11:03:52;22.60;71.10
11836;DHT22;5977;51.972;7.640;2022-07-22T11:06:26;22.60;70.90
11836;DHT22;5977;51.972;7.640;2022-07-22T11:08:56;22.50;71.80
11836;DHT22;5977;51.972;7.640;2022-07-22T11:11:35;22.60;71.60
11836;DHT22;5977;51.972;7.640;2022-07-22T11:14:13;22.80;71.70
11836;DHT22;5977;51.972;7.640;2022-07-22T11:16:41;22.80;70.00
11836;DHT22;5977;51.972;7.640;2022-07-22T11:19:09;22.90;70.90
11836;DHT22;5977;51.972;7.640;2022-07-22T11:21:37;22.80;69.20
11836;DHT22;5977;51.972;7.640;2022-07-22T11:24:11;22.60;69.30
11836;DHT22;5977;51.972;7.640;2022-07-22T11:26:41;22.40;70.10
11836;DHT22;5977;51.972;7.640;2022-07-22T11:29:16;22.40;70.50
11836;DHT22;5977;51.972;7.640;2022-07-22T11:31:44;22.60;69.70
11836;DHT22;5977;51.972;7.640;2022-07-22T11:34:14;22.60;69.80
11836;DHT22;5977;51.972;7.640;2022-07-22T11:36:43;22.60;70.30
11836;DHT22;5977;51.972;7.640;2022-07-22T11:39:14;22.60;70.40
11836;DHT22;5977;51.972;7.640;2022-07-22T11:41:42;22.70;70.70
11836;DHT22;5977;51.972;7.640;2022-07-22T11:44:11;22.60;70.00
11836;DHT22;5977;51.972;7.640;2022-07-22T11:46:41;22.60;69.40
11836;DHT22;5977;51.972;7.640;2022-07-22T11:49:09;22.50;69.60
11836;DHT22;5977;51.972;7.640;2022-07-22T11:51:40;22.40;70.00
11836;DHT22;5977;51.972;7.640;2022-07-22T11:54:08;22.60;70.00
11836;DHT22;5977;51.972;7.640;2022-07-22T11:56:37;22.60;70.70
11836;DHT22;5977;51.972;7.640;2022-07-22T11:59:06;22.70;70.20
11836;DHT22;5977;51.972;7.640;2022-07-22T12:01:38;23.80;69.60
11836;DHT22;5977;51.972;7.640;2022-07-22T12:04:09;24.70;68.00
11836;DHT22;5977;51.972;7.640;2022-07-22T12:06:39;25.30;66.80
11836;DHT22;5977;51.972;7.640;2022-07-22T12:09:08;25.60;66.20
11836;DHT22;5977;51.972;7.640;2022-07-22T12:11:38;25.90;66.20
11836;DHT22;5977;51.972;7.640;2022-07-22T12:14:08;26.10;66.40
11836;DHT22;5977;51.972;7.640;2022-07-22T12:16:44;26.10;66.70
11836;DHT22;5977;51.972;7.640;2022-07-22T12:19:20;25.30;65.60
11836;DHT22;5977;51.972;7.640;2022-07-22T12:21:53;24.10;66.30
11836;DHT22;5977;51.972;7.640;2022-07-22T12:24:26;23.80;67.00
11836;DHT22;5977;51.972;7.640;2022-07-22T12:26:56;23.40;67.60
11836;DHT22;5977;51.972;7.640;2022-07-22T12:29:26;23.00;68.40
11836;DHT22;5977;51.972;7.640;2022-07-22T12:31:57;22.80;67.90
11836;DHT22;5977;51.972;7.640;2022-07-22T12:34:35;22.40;67.80
11836;DHT22;5977;51.972;7.640;2022-07-22T12:37:14;22.30;68.90
11836;DHT22;5977;51.972;7.640;2022-07-22T12:39:56;22.40;70.00
11836;DHT22;5977;51.972;7.640;2022-07-22T12:42:26;22.70;69.50
11836;DHT22;5977;51.972;7.640;2022-07-22T12:45:00;22.60;69.10
11836;DHT22;5977;51.972;7.640;2022-07-22T12:47:48;22.50;69.70
11836;DHT22;5977;51.972;7.640;2022-07-22T12:50:22;22.50;69.80
11836;DHT22;5977;51.972;7.640;2022-07-22T12:52:51;22.80;70.30
11836;DHT22;5977;51.972;7.640;2022-07-22T12:55:40;22.90;69.40
11836;DHT22;5977;51.972;7.640;2022-07-22T12:58:08;22.70;69.00
11836;DHT22;5977;51.972;7.640;2022-07-22T13:00:38;22.70;70.70
11836;DHT22;5977;51.972;7.640;2022-07-22T13:03:08;22.70;70.20
11836;DHT22;5977;51.972;7.640;2022-07-22T13:05:36;22.70;69.90
11836;DHT22;5977;51.972;7.640;2022-07-22T13:08:04;22.70;70.00
11836;DHT22;5977;51.972;7.640;2022-07-22T13:10:35;22.70;69.60
11836;DHT22;5977;51.972;7.640;2022-07-22T13:13:05;22.50;69.00
11836;DHT22;5977;51.972;7.640;2022-07-22T13:15:33;22.50;69.10
11836;DHT22;5977;51.972;7.640;2022-07-22T13:18:00;22.60;69.30
11836;DHT22;5977;51.972;7.640;2022-07-22T13:20:30;22.80;68.10
11836;DHT22;5977;51.972;7.640;2022-07-22T13:22:58;22.50;68.80
11836;DHT22;5977;51.972;7.640;2022-07-22T13:25:26;22.80;69.70
11836;DHT22;5977;51.972;7.640;2022-07-22T13:27:54;23.00;69.40
11836;DHT22;5977;51.972;7.640;2022-07-22T13:30:22;23.10;68.10
11836;DHT22;5977;51.972;7.640;2022-07-22T13:32:50;23.00;67.90
11836;DHT22;5977;51.972;7.640;2022-07-22T13:35:19;23.10;68.30
11836;DHT22;5977;51.972;7.640;2022-07-22T13:37:48;23.10;68.20
11836;DHT22;5977;51.972;7.640;2022-07-22T13:40:16;23.10;69.20
11836;DHT22;5977;51.972;7.640;2022-07-22T13:42:43;23.00;68.40
11836;DHT22;5977;51.972;7.640;2022-07-22T13:45:11;22.90;69.40
11836;DHT22;5977;51.972;7.640;2022-07-22T13:47:40;22.90;69.20
11836;DHT22;5977;51.972;7.640;2022-07-22T13:50:08;23.00;68.70
11836;DHT22;5977;51.972;7.640;2022-07-22T13:52:36;23.10;68.90
11836;DHT22;5977;51.972;7.640;2022-07-22T13:55:06;23.20;67.70
11836;DHT22;5977;51.972;7.640;2022-07-22T13:57:34;23.80;68.40
11836;DHT22;5977;51.972;7.640;2022-07-22T14:00:03;23.70;65.50
11836;DHT22;5977;51.972;7.640;2022-07-22T14:02:40;23.60;67.80
11836;DHT22;5977;51.972;7.640;2022-07-22T14:05:08;23.60;66.40
11836;DHT22;5977;51.972;7.640;2022-07-22T14:07:36;23.40;66.10
11836;DHT22;5977;51.972;7.640;2022-07-22T14:10:06;23.40;66.30
11836;DHT22;5977;51.972;7.640;2022-07-22T14:12:34;23.60;66.20
11836;DHT22;5977;51.972;7.640;2022-07-22T14:15:02;23.60;66.80
11836;DHT22;5977;51.972;7.640;2022-07-22T14:17:32;23.80;66.80
11836;DHT22;5977;51.972;7.640;2022-07-22T14:20:00;23.90;65.90
11836;DHT22;5977;51.972;7.640;2022-07-22T14:22:28;23.70;65.70
11836;DHT22;5977;51.972;7.640;2022-07-22T14:24:57;23.50;65.40
11836;DHT22;5977;51.972;7.640;2022-07-22T14:27:26;23.20;65.50
11836;DHT22;5977;51.972;7.640;2022-07-22T14:29:54;23.40;67.40
11836;DHT22;5977;51.972;7.640;2022-07-22T14:32:22;23.80;65.30
11836;DHT22;5977;51.972;7.640;2022-07-22T14:34:49;23.70;65.30
11836;DHT22;5977;51.972;7.640;2022-07-22T14:37:17;23.80;65.70
11836;DHT22;5977;51.972;7.640;2022-07-22T14:39:52;23.80;65.10
11836;DHT22;5977;51.972;7.640;2022-07-22T14:42:20;23.60;65.30
11836;DHT22;5977;51.972;7.640;2022-07-22T14:44:49;23.60;65.80
11836;DHT22;5977;51.972;7.640;2022-07-22T14:47:17;23.50;65.50
11836;DHT22;5977;51.972;7.640;2022-07-22T14:49:45;23.70;66.30
11836;DHT22;5977;51.972;7.640;2022-07-22T14:52:13;23.70;64.30
11836;DHT22;5977;51.972;7.640;2022-07-22T14:54:40;23.70;65.50
11836;DHT22;5977;51.972;7.640;2022-07-22T14:57:08;23.70;65.30
11836;DHT22;5977;51.972;7.640;2022-07-22T14:59:36;23.60;64.80
11836;DHT22;5977;51.972;7.640;2022-07-22T15:02:05;23.50;65.40
11836;DHT22;5977;51.972;7.640;2022-07-22T15:04:33;23.40;66.30
11836;DHT22;5977;51.972;7.640;2022-07-22T15:07:01;23.50;65.40
11836;DHT22;5977;51.972;7.640;2022-07-22T15:09:29;23.50;65.80
11836;DHT22;5977;51.972;7.640;2022-07-22T15:11:57;23.40;65.40
11836;DHT22;5977;51.972;7.640;2022-07-22T15:14:25;23.40;65.70
11836;DHT22;5977;51.972;7.640;2022-07-22T15:16:53;23.50;64.90
11836;DHT22;5977;51.972;7.640;2022-07-22T15:19:22;23.50;66.20
11836;DHT22;5977;51.972;7.640;2022-07-22T15:21:53;23.60;65.10
11836;DHT22;5977;51.972;7.640;2022-07-22T15:24:21;23.60;66.10
11836;DHT22;5977;51.972;7.640;2022-07-22T15:26:50;23.60;66.20
11836;DHT22;5977;51.972;7.640;2022-07-22T15:29:18;23.60;65.80
11836;DHT22;5977;51.972;7.640;2022-07-22T15:31:45;23.60;65.60
11836;DHT22;5977;51.972;7.640;2022-07-22T15:34:13;23.50;65.40
11836;DHT22;5977;51.972;7.640;2022-07-22T15:36:42;23.40;66.30
11836;DHT22;5977;51.972;7.640;2022-07-22T15:39:10;23.40;66.30
11836;DHT22;5977;51.972;7.640;2022-07-22T15:41:39;23.50;66.10
11836;DHT22;5977;51.972;7.640;2022-07-22T15:44:07;23.60;65.90
11836;DHT22;5977;51.972;7.640;2022-07-22T15:46:35;24.00;66.70
11836;DHT22;5977;51.972;7.640;2022-07-22T15:49:05;23.80;66.80
11836;DHT22;5977;51.972;7.640;2022-07-22T15:51:32;23.60;66.60
11836;DHT22;5977;51.972;7.640;2022-07-22T15:54:02;23.60;67.20
11836;DHT22;5977;51.972;7.640;2022-07-22T15:56:29;23.70;68.10
11836;DHT22;5977;51.972;7.640;2022-07-22T15:58:57;23.60;67.30
11836;DHT22;5977;51.972;7.640;2022-07-22T16:01:55;23.70;66.10
11836;DHT22;5977;51.972;7.640;2022-07-22T16:04:23;23.70;66.20
11836;DHT22;5977;51.972;7.640;2022-07-22T16:06:51;23.80;67.10
11836;DHT22;5977;51.972;7.640;2022-07-22T16:09:22;23.80;66.00
11836;DHT22;5977;51.972;7.640;2022-07-22T16:11:54;23.80;66.60